createdAt,value
2022-12-08T00:00:54.928Z,5.60
2022-12-08T00:03:21.885Z,5.00
2022-12-08T00:05:49.798Z,4.90
2022-12-08T00:08:16.587Z,5.28
2022-12-08T00:10:50.797Z,4.43
2022-12-08T00:13:18.818Z,5.60
2022-12-08T00:15:45.387Z,4.90
2022-12-08T00:18:12.168Z,5.07
2022-12-08T00:20:38.859Z,4.90
2022-12-08T00:23:05.440Z,5.22
2022-12-08T00:25:35.712Z,6.57
2022-12-08T00:28:02.368Z,6.40
2022-12-08T00:30:30.502Z,6.35
2022-12-08T00:32:57.167Z,6.65
2022-12-08T00:35:23.857Z,7.53
2022-12-08T00:37:50.401Z,8.25
2022-12-08T00:40:17.188Z,8.45
2022-12-08T00:42:43.778Z,9.48
2022-12-08T00:45:11.574Z,9.20
2022-12-08T00:47:39.573Z,10.10
2022-12-08T00:50:07.427Z,9.18
2022-12-08T00:52:34.060Z,9.20
2022-12-08T00:55:00.699Z,9.55
2022-12-08T00:57:27.429Z,8.38
2022-12-08T00:59:54.007Z,9.63
2022-12-08T01:02:20.599Z,9.30
2022-12-08T01:04:48.536Z,8.77
2022-12-08T01:07:15.169Z,9.77
2022-12-08T01:09:41.873Z,8.63
2022-12-08T01:12:09.093Z,9.63
2022-12-08T01:14:37.026Z,9.13
2022-12-08T01:17:03.953Z,8.75
2022-12-08T01:19:30.673Z,8.52
2022-12-08T01:21:59.487Z,8.40
2022-12-08T01:24:26.920Z,8.38
2022-12-08T01:26:53.495Z,7.68
2022-12-08T01:29:20.093Z,7.90
2022-12-08T01:31:46.707Z,8.70
2022-12-08T01:34:13.304Z,7.38
2022-12-08T01:36:41.173Z,7.97
2022-12-08T01:39:14.043Z,6.80
2022-12-08T01:41:41.354Z,7.60
2022-12-08T01:44:45.349Z,7.70
2022-12-08T01:47:12.038Z,7.28
2022-12-08T01:49:38.664Z,7.90
2022-12-08T01:52:11.001Z,7.72
2022-12-08T01:54:44.239Z,7.32
2022-12-08T01:57:16.816Z,6.43
2022-12-08T01:59:49.824Z,7.00
2022-12-08T02:02:16.484Z,6.53
2022-12-08T02:04:43.115Z,6.78
2022-12-08T02:07:12.266Z,6.60
2022-12-08T02:09:41.754Z,6.38
2022-12-08T02:12:09.861Z,6.55
2022-12-08T02:14:36.647Z,7.28
2022-12-08T02:17:10.535Z,6.32
2022-12-08T02:20:04.377Z,6.40
2022-12-08T02:25:15.939Z,5.40
2022-12-08T02:27:52.035Z,5.72
2022-12-08T02:30:22.063Z,5.53
2022-12-08T02:33:13.570Z,6.63
2022-12-08T02:35:47.666Z,5.22
2022-12-08T02:38:24.081Z,5.68
2022-12-08T02:41:00.935Z,5.40
2022-12-08T02:43:33.819Z,5.32
2022-12-08T02:46:03.482Z,4.50
2022-12-08T02:48:32.426Z,5.18
2022-12-08T02:51:01.029Z,5.60
2022-12-08T02:53:30.528Z,5.10
2022-12-08T02:56:03.265Z,5.85
2022-12-08T02:59:02.188Z,4.90
2022-12-08T03:02:02.045Z,4.15
2022-12-08T03:04:38.330Z,4.75
2022-12-08T03:07:11.363Z,4.90
2022-12-08T03:09:41.854Z,4.25
2022-12-08T03:12:16.954Z,5.25
2022-12-08T03:14:49.869Z,4.47
2022-12-08T03:17:19.327Z,4.57
2022-12-08T03:19:48.690Z,4.50
2022-12-08T03:22:21.898Z,4.45
2022-12-08T03:24:49.355Z,4.70
2022-12-08T03:27:19.785Z,4.15
2022-12-08T03:29:47.247Z,4.13
2022-12-08T03:32:21.985Z,4.80
2022-12-08T03:34:51.506Z,5.00
2022-12-08T03:37:20.759Z,4.47
2022-12-08T03:39:47.441Z,4.88
2022-12-08T03:42:14.051Z,4.53
2022-12-08T03:44:40.738Z,4.60
2022-12-08T03:47:07.312Z,4.75
2022-12-08T03:49:33.956Z,4.38
2022-12-08T03:52:00.654Z,4.85
2022-12-08T03:54:28.728Z,5.60
2022-12-08T03:56:55.382Z,5.47
2022-12-08T03:59:21.917Z,5.60
2022-12-08T04:01:48.677Z,5.97
2022-12-08T04:04:15.328Z,6.15
2022-12-08T04:06:41.935Z,5.60
2022-12-08T04:09:09.395Z,6.72
2022-12-08T04:11:37.415Z,6.18
2022-12-08T04:14:04.023Z,6.95
2022-12-08T04:16:30.793Z,6.90
2022-12-08T04:18:57.546Z,7.00
2022-12-08T04:21:24.170Z,7.05
2022-12-08T04:23:52.146Z,7.15
2022-12-08T04:26:21.525Z,6.82
2022-12-08T04:28:49.523Z,7.13
2022-12-08T04:31:16.153Z,7.57
2022-12-08T04:33:42.778Z,7.28
2022-12-08T04:36:09.767Z,7.90
2022-12-08T04:38:36.402Z,7.53
2022-12-08T04:41:03.215Z,9.00
2022-12-08T04:43:29.833Z,9.65
2022-12-08T04:45:57.831Z,9.30
2022-12-08T04:48:24.497Z,9.55
2022-12-08T04:50:51.104Z,10.60
2022-12-08T04:53:17.789Z,9.48
2022-12-08T04:55:44.940Z,9.52
2022-12-08T04:58:12.705Z,9.38
2022-12-08T05:00:39.298Z,10.45
2022-12-08T05:03:07.404Z,10.27
2022-12-08T05:05:34.022Z,9.70
2022-12-08T05:08:00.691Z,9.75
2022-12-08T05:10:27.539Z,10.95
2022-12-08T05:12:54.083Z,10.00
2022-12-08T05:15:20.688Z,10.20
2022-12-08T05:17:47.246Z,10.65
2022-12-08T05:20:15.389Z,10.18
2022-12-08T05:22:41.983Z,9.80
2022-12-08T05:25:09.289Z,10.43
2022-12-08T05:27:36.460Z,9.95
2022-12-08T05:30:03.752Z,10.55
2022-12-08T05:32:30.593Z,10.77
2022-12-08T05:34:57.129Z,10.52
2022-12-08T05:37:25.103Z,10.18
2022-12-08T05:39:51.655Z,10.90
2022-12-08T05:42:23.173Z,10.38
2022-12-08T05:44:51.313Z,9.77
2022-12-08T05:47:17.894Z,10.25
2022-12-08T05:49:44.488Z,10.88
2022-12-08T05:52:11.145Z,10.52
2022-12-08T05:54:39.072Z,9.77
2022-12-08T05:57:05.610Z,9.60
2022-12-08T05:59:32.353Z,10.38
2022-12-08T06:01:59.128Z,11.32
2022-12-08T06:04:25.830Z,11.73
2022-12-08T06:06:52.396Z,11.82
2022-12-08T06:09:18.958Z,10.48
2022-12-08T06:11:46.865Z,11.10
2022-12-08T06:14:13.745Z,11.85
2022-12-08T06:16:40.414Z,12.32
2022-12-08T06:19:07.057Z,11.73
2022-12-08T06:21:33.843Z,12.10
2022-12-08T06:24:00.432Z,11.15
2022-12-08T06:26:27.061Z,11.40
2022-12-08T06:28:55.044Z,12.13
2022-12-08T06:31:23.541Z,11.60
2022-12-08T06:33:50.931Z,11.27
2022-12-08T06:36:19.776Z,11.10
2022-12-08T06:38:46.705Z,10.95
2022-12-08T06:41:13.678Z,12.02
2022-12-08T06:43:40.275Z,11.10
2022-12-08T06:46:10.776Z,11.60
2022-12-08T06:48:37.423Z,10.90
2022-12-08T06:51:08.833Z,11.27
2022-12-08T06:53:35.395Z,12.00
2022-12-08T06:56:02.103Z,12.02
2022-12-08T06:58:28.855Z,10.98
2022-12-08T07:00:55.550Z,11.40
2022-12-08T07:03:23.614Z,11.43
2022-12-08T07:05:50.210Z,11.20
2022-12-08T07:08:16.898Z,11.57
2022-12-08T07:10:43.513Z,10.73
2022-12-08T07:13:10.117Z,11.85
2022-12-08T07:15:36.797Z,11.38
2022-12-08T07:18:03.613Z,11.52
2022-12-08T07:20:31.577Z,10.95
2022-12-08T07:22:58.372Z,11.00
2022-12-08T07:25:24.951Z,10.82
2022-12-08T07:27:51.600Z,11.13
2022-12-08T07:30:18.657Z,10.82
2022-12-08T07:32:45.794Z,11.25
2022-12-08T07:35:12.456Z,11.05
2022-12-08T07:37:40.441Z,10.98
2022-12-08T07:40:09.246Z,11.20
2022-12-08T07:42:35.995Z,12.00
2022-12-08T07:45:02.611Z,10.77
2022-12-08T07:47:29.203Z,12.32
2022-12-08T07:49:55.808Z,10.98
2022-12-08T07:52:22.421Z,11.00
2022-12-08T07:54:50.422Z,13.00
2022-12-08T07:57:17.091Z,10.88
2022-12-08T07:59:43.726Z,12.13
2022-12-08T08:02:25.734Z,11.38
2022-12-08T08:04:53.127Z,12.52
2022-12-08T08:07:19.820Z,11.05
2022-12-08T08:09:46.409Z,11.50
2022-12-08T08:12:30.674Z,10.38
2022-12-08T08:14:58.523Z,10.23
2022-12-08T08:17:25.311Z,10.07
2022-12-08T08:19:51.955Z,10.77
2022-12-08T08:22:18.555Z,10.63
2022-12-08T08:24:45.438Z,10.05
2022-12-08T08:27:13.677Z,10.70
2022-12-08T08:29:40.224Z,10.93
2022-12-08T08:32:06.812Z,11.23
2022-12-08T08:34:33.455Z,10.95
2022-12-08T08:37:00.285Z,10.65
2022-12-08T08:39:27.156Z,10.05
2022-12-08T08:41:53.855Z,9.63
2022-12-08T08:44:21.802Z,10.77
2022-12-08T08:46:48.403Z,11.20
2022-12-08T08:49:15.066Z,10.93
2022-12-08T08:51:41.735Z,10.35
2022-12-08T08:54:08.324Z,10.73
2022-12-08T08:56:35.031Z,9.93
2022-12-08T08:59:01.705Z,9.73
2022-12-08T09:01:30.241Z,10.85
2022-12-08T09:03:57.058Z,10.50
2022-12-08T09:06:24.715Z,10.05
2022-12-08T09:08:51.939Z,9.90
2022-12-08T09:11:18.800Z,9.93
2022-12-08T09:13:47.861Z,10.43
2022-12-08T09:16:14.496Z,10.73
2022-12-08T09:18:42.498Z,9.65
2022-12-08T09:21:11.100Z,9.25
2022-12-08T09:23:37.756Z,9.75
2022-12-08T09:26:05.233Z,9.63
2022-12-08T09:28:31.813Z,10.10
2022-12-08T09:30:58.469Z,10.02
2022-12-08T09:33:25.174Z,10.65
2022-12-08T09:35:53.240Z,10.43
2022-12-08T09:38:19.876Z,10.70
2022-12-08T09:40:50.489Z,10.27
2022-12-08T09:43:31.428Z,10.00
2022-12-08T09:45:59.337Z,9.68
2022-12-08T09:48:31.791Z,10.00
2022-12-08T09:50:59.872Z,9.83
2022-12-08T09:53:35.902Z,10.25
2022-12-08T09:56:08.539Z,10.18
2022-12-08T09:58:48.069Z,9.82
2022-12-08T10:01:15.542Z,10.13
2022-12-08T10:03:43.036Z,11.05
2022-12-08T10:06:19.957Z,10.57
2022-12-08T10:08:56.110Z,10.52
2022-12-08T10:11:29.225Z,10.38
2022-12-08T10:14:03.159Z,11.43
2022-12-08T10:16:34.718Z,9.63
2022-12-08T10:19:13.345Z,9.65
2022-12-08T10:21:41.479Z,9.52
2022-12-08T10:24:15.459Z,10.60
2022-12-08T10:26:42.844Z,9.40
2022-12-08T10:29:13.089Z,9.75
2022-12-08T10:31:39.903Z,8.98
2022-12-08T10:34:17.363Z,10.00
2022-12-08T10:36:53.027Z,8.73
2022-12-08T10:39:34.702Z,10.48
2022-12-08T10:42:06.278Z,9.70
2022-12-08T10:44:33.111Z,9.60
2022-12-08T10:46:59.957Z,8.88
2022-12-08T10:49:31.761Z,9.77
2022-12-08T10:51:59.923Z,9.57
2022-12-08T10:54:29.226Z,9.38
2022-12-08T10:56:57.044Z,8.88
2022-12-08T10:59:24.541Z,8.40
2022-12-08T11:01:52.928Z,8.52
2022-12-08T11:04:21.721Z,8.05
2022-12-08T11:06:50.036Z,7.95
2022-12-08T11:09:32.419Z,7.70
2022-12-08T11:12:00.853Z,7.82
2022-12-08T11:14:29.935Z,7.22
2022-12-08T11:17:04.739Z,7.70
2022-12-08T11:19:31.538Z,8.40
2022-12-08T11:21:58.248Z,8.55
2022-12-08T11:24:32.303Z,8.85
2022-12-08T11:27:02.476Z,8.50
2022-12-08T11:29:32.663Z,9.18
2022-12-08T11:32:02.736Z,8.88
2022-12-08T11:34:35.413Z,8.77
2022-12-08T11:37:04.983Z,9.37
2022-12-08T11:39:36.343Z,10.30
2022-12-08T11:42:05.790Z,8.55
2022-12-08T11:44:38.776Z,8.90
2022-12-08T11:47:10.581Z,9.30
2022-12-08T11:49:39.178Z,8.95
2022-12-08T11:52:17.384Z,8.82
2022-12-08T11:54:52.106Z,9.85
2022-12-08T11:57:23.246Z,9.27
2022-12-08T11:59:52.014Z,9.70
2022-12-08T12:02:22.038Z,9.38
2022-12-08T12:04:54.432Z,8.85
2022-12-08T12:07:53.041Z,8.73
2022-12-08T12:10:39.659Z,8.60
2022-12-08T12:13:19.374Z,9.02
2022-12-08T12:16:19.535Z,9.13
2022-12-08T12:18:50.927Z,8.40
2022-12-08T12:21:22.320Z,8.60
2022-12-08T12:23:54.255Z,8.20
2022-12-08T12:26:24.781Z,8.48
2022-12-08T12:28:55.830Z,8.00
2022-12-08T12:31:26.033Z,9.10
2022-12-08T12:33:57.142Z,9.23
2022-12-08T12:36:24.102Z,9.52
2022-12-08T12:38:55.331Z,9.23
2022-12-08T12:41:28.014Z,9.57
2022-12-08T12:44:20.844Z,9.57
2022-12-08T12:46:57.205Z,8.93
2022-12-08T12:50:05.535Z,8.02
2022-12-08T12:52:53.429Z,8.18
2022-12-08T12:55:29.741Z,6.75
2022-12-08T12:58:01.654Z,6.28
2022-12-08T13:00:28.336Z,6.65
2022-12-08T13:02:56.498Z,6.90
2022-12-08T13:05:26.213Z,7.18
2022-12-08T13:07:56.146Z,6.85
2022-12-08T13:10:25.508Z,6.75
2022-12-08T13:13:15.544Z,8.25
2022-12-08T13:15:49.690Z,7.70
2022-12-08T13:18:20.941Z,7.57
2022-12-08T13:20:51.553Z,8.10
2022-12-08T13:23:44.529Z,8.75
2022-12-08T13:26:16.538Z,10.07
2022-12-08T13:29:16.711Z,8.40
2022-12-08T13:31:50.052Z,8.20
2022-12-08T13:34:21.880Z,8.40
2022-12-08T13:36:57.232Z,7.95
2022-12-08T13:39:28.967Z,7.70
2022-12-08T13:42:02.051Z,8.32
2022-12-08T13:45:18.682Z,7.88
2022-12-08T13:47:34.673Z,7.60
2022-12-08T13:58:37.263Z,8.50
2022-12-08T14:01:10.739Z,8.23
2022-12-08T14:06:36.547Z,8.02
2022-12-08T14:09:10.852Z,8.00
2022-12-08T14:11:40.914Z,8.35
2022-12-08T14:14:14.300Z,8.32
2022-12-08T14:16:49.118Z,8.20
2022-12-08T14:19:19.304Z,7.95
2022-12-08T14:21:54.437Z,8.05
2022-12-08T14:24:22.682Z,7.72
2022-12-08T14:26:52.777Z,8.38
2022-12-08T14:29:35.970Z,7.97
2022-12-08T14:32:04.529Z,8.20
2022-12-08T14:34:35.105Z,7.53
2022-12-08T14:37:01.893Z,7.75
2022-12-08T14:39:28.654Z,8.63
2022-12-08T14:42:00.085Z,7.43
2022-12-08T14:44:30.952Z,7.28
2022-12-08T14:47:07.357Z,7.28
2022-12-08T14:49:35.974Z,8.23
2022-12-08T14:52:08.583Z,7.78
2022-12-08T14:54:35.822Z,8.10
2022-12-08T14:57:03.327Z,8.02
2022-12-08T14:59:32.852Z,7.50
2022-12-08T15:02:20.927Z,8.00
2022-12-08T15:04:50.507Z,8.18
2022-12-08T15:07:19.499Z,7.90
2022-12-08T15:09:48.756Z,7.45
2022-12-08T15:12:26.815Z,7.00
2022-12-08T15:14:56.594Z,7.78
2022-12-08T15:17:34.753Z,7.75
2022-12-08T15:20:03.383Z,7.53
2022-12-08T15:22:30.781Z,6.70
2022-12-08T15:24:57.979Z,7.55
2022-12-08T15:27:25.594Z,7.05
2022-12-08T15:29:53.012Z,7.38
2022-12-08T15:32:23.191Z,7.72
2022-12-08T15:34:51.409Z,7.70
2022-12-08T15:37:22.104Z,8.18
2022-12-08T15:39:49.236Z,8.57
2022-12-08T15:42:16.054Z,8.75
2022-12-08T15:44:43.257Z,9.38
2022-12-08T15:47:16.208Z,9.38
2022-12-08T15:49:43.042Z,9.93
2022-12-08T15:52:15.913Z,9.10
2022-12-08T15:54:42.690Z,8.27
2022-12-08T15:57:29.987Z,8.27
2022-12-08T16:00:36.415Z,8.07
2022-12-08T16:03:42.265Z,7.72
2022-12-08T16:06:16.547Z,7.45
2022-12-08T16:08:49.465Z,8.18
2022-12-08T16:11:56.811Z,7.22
2022-12-08T16:14:48.793Z,8.90
2022-12-08T16:16:56.384Z,8.00
2022-12-08T16:19:23.102Z,7.78
2022-12-08T16:22:30.297Z,8.80
2022-12-08T16:24:37.875Z,9.23
2022-12-08T16:29:51.568Z,9.23
2022-12-08T16:32:18.400Z,9.32
2022-12-08T16:34:45.283Z,9.50
2022-12-08T16:37:15.142Z,9.85
2022-12-08T16:39:45.917Z,10.20
2022-12-08T16:42:14.354Z,13.00
2022-12-08T16:44:41.600Z,11.82
2022-12-08T16:47:09.149Z,12.95
2022-12-08T16:49:37.054Z,13.60
2022-12-08T16:52:04.186Z,13.95
2022-12-08T16:54:31.178Z,11.70
2022-12-08T16:57:01.043Z,11.90
2022-12-08T16:59:27.721Z,12.65
2022-12-08T17:01:54.439Z,11.95
2022-12-08T17:04:36.693Z,13.00
2022-12-08T17:07:03.403Z,16.10
2022-12-08T17:09:31.274Z,15.27
2022-12-08T17:12:03.776Z,13.07
2022-12-08T17:14:33.478Z,13.50
2022-12-08T17:17:00.260Z,10.77
2022-12-08T17:19:27.047Z,10.70
2022-12-08T17:21:53.717Z,10.65
2022-12-08T17:24:22.272Z,10.55
2022-12-08T17:26:49.252Z,9.60
2022-12-08T17:29:17.353Z,9.20
2022-12-08T17:31:44.112Z,9.90
2022-12-08T17:34:11.144Z,10.05
2022-12-08T17:36:38.072Z,9.98
2022-12-08T17:39:05.697Z,10.55
2022-12-08T17:41:32.800Z,9.98
2022-12-08T17:43:59.527Z,10.05
2022-12-08T17:46:27.847Z,9.25
2022-12-08T17:48:54.546Z,10.73
2022-12-08T17:51:21.243Z,10.25
2022-12-08T17:53:48.098Z,10.30
2022-12-08T17:56:18.294Z,10.13
2022-12-08T17:58:48.542Z,10.32
2022-12-08T18:01:17.995Z,9.55
2022-12-08T18:03:46.064Z,9.52
2022-12-08T18:06:12.878Z,8.95
2022-12-08T18:08:40.230Z,9.98
2022-12-08T18:11:12.054Z,10.13
2022-12-08T18:13:38.881Z,10.27
2022-12-08T18:16:05.798Z,10.80
2022-12-08T18:18:32.576Z,11.10
2022-12-08T18:21:00.732Z,10.10
2022-12-08T18:23:27.454Z,10.30
2022-12-08T18:25:54.306Z,11.70
2022-12-08T18:28:21.063Z,11.82
2022-12-08T18:30:47.839Z,12.13
2022-12-08T18:33:14.546Z,10.38
2022-12-08T18:35:41.283Z,10.27
2022-12-08T18:38:09.411Z,10.98
2022-12-08T18:40:36.545Z,10.30
2022-12-08T18:43:03.248Z,11.45
2022-12-08T18:45:29.938Z,11.27
2022-12-08T18:47:56.607Z,11.13
2022-12-08T18:50:23.369Z,10.98
2022-12-08T18:52:50.068Z,10.85
2022-12-08T18:55:18.362Z,11.25
2022-12-08T18:57:45.138Z,11.18
2022-12-08T19:00:14.662Z,12.63
2022-12-08T19:02:42.117Z,12.65
2022-12-08T19:05:10.850Z,11.85
2022-12-08T19:07:38.252Z,12.07
2022-12-08T19:10:06.931Z,11.95
2022-12-08T19:12:35.249Z,12.45
2022-12-08T19:15:01.982Z,11.23
2022-12-08T19:17:28.626Z,13.93
2022-12-08T19:19:55.359Z,13.13
2022-12-08T19:22:22.011Z,13.48
2022-12-08T19:24:48.660Z,13.23
2022-12-08T19:27:15.383Z,14.00
2022-12-08T19:29:43.480Z,13.07
2022-12-08T19:32:10.148Z,14.82
2022-12-08T19:34:36.773Z,13.52
2022-12-08T19:37:03.525Z,12.73
2022-12-08T19:39:30.370Z,12.65
2022-12-08T19:41:57.114Z,12.00
2022-12-08T19:44:26.139Z,12.18
2022-12-08T19:46:54.400Z,12.55
2022-12-08T19:49:21.186Z,12.05
2022-12-08T19:51:47.828Z,12.05
2022-12-08T19:54:14.562Z,12.50
2022-12-08T19:56:41.183Z,12.88
2022-12-08T19:59:07.972Z,12.43
2022-12-08T20:01:34.721Z,13.48
2022-12-08T20:04:02.924Z,13.48
2022-12-08T20:06:29.586Z,11.90
2022-12-08T20:08:56.273Z,11.77
2022-12-08T20:11:23.038Z,12.77
2022-12-08T20:13:49.725Z,13.95
2022-12-08T20:16:16.740Z,12.73
2022-12-08T20:18:43.794Z,12.63
2022-12-08T20:21:12.340Z,12.73
2022-12-08T20:23:39.048Z,12.45
2022-12-08T20:26:06.498Z,12.07
2022-12-08T20:28:34.487Z,11.65
2022-12-08T20:31:01.490Z,12.25
2022-12-08T20:33:28.320Z,13.70
2022-12-08T20:35:59.214Z,26.67
2022-12-08T20:38:27.777Z,34.97
2022-12-08T20:40:54.485Z,23.15
2022-12-08T20:43:21.602Z,17.42
2022-12-08T20:45:48.315Z,20.42
2022-12-08T20:48:14.977Z,25.25
2022-12-08T20:50:42.046Z,21.15
2022-12-08T20:53:09.240Z,21.98
2022-12-08T20:55:40.605Z,24.17
2022-12-08T20:58:07.302Z,21.00
2022-12-08T21:00:34.146Z,18.35
2022-12-08T21:03:01.263Z,13.40
2022-12-08T21:05:28.399Z,14.35
2022-12-08T21:07:55.286Z,12.52
2022-12-08T21:10:22.192Z,12.45
2022-12-08T21:12:50.367Z,12.73
2022-12-08T21:15:17.325Z,11.82
2022-12-08T21:17:44.187Z,15.27
2022-12-08T21:20:11.952Z,19.65
2022-12-08T21:22:38.856Z,24.42
2022-12-08T21:25:06.488Z,20.95
2022-12-08T21:27:33.707Z,20.42
2022-12-08T21:30:02.071Z,20.48
2022-12-08T21:32:30.602Z,17.98
2022-12-08T21:34:57.676Z,19.35
2022-12-08T21:37:24.915Z,19.90
2022-12-08T21:39:51.863Z,20.10
2022-12-08T21:42:21.473Z,19.58
2022-12-08T21:44:49.587Z,18.10
2022-12-08T21:47:17.787Z,19.08
2022-12-08T21:49:44.560Z,25.23
2022-12-08T21:52:11.616Z,25.45
2022-12-08T21:54:38.441Z,32.58
2022-12-08T21:57:05.251Z,32.05
2022-12-08T21:59:32.188Z,33.17
2022-12-08T22:01:58.999Z,29.63
2022-12-08T22:04:27.679Z,25.05
2022-12-08T22:06:54.485Z,19.48
2022-12-08T22:09:21.574Z,15.20
2022-12-08T22:11:48.611Z,14.80
2022-12-08T22:14:15.573Z,12.77
2022-12-08T22:16:42.830Z,15.15
2022-12-08T22:19:10.182Z,18.48
2022-12-08T22:21:38.491Z,15.82
2022-12-08T22:24:06.173Z,14.48
2022-12-08T22:26:33.533Z,14.20
2022-12-08T22:29:00.616Z,17.92
2022-12-08T22:31:28.415Z,19.15
2022-12-08T22:33:55.295Z,15.90
2022-12-08T22:36:23.867Z,13.68
2022-12-08T22:38:53.404Z,11.68
2022-12-08T22:41:21.179Z,10.35
2022-12-08T22:43:48.660Z,12.15
2022-12-08T22:46:17.301Z,10.27
2022-12-08T22:48:44.504Z,10.57
2022-12-08T22:51:11.396Z,12.02
2022-12-08T22:53:38.322Z,11.70
2022-12-08T22:56:08.184Z,10.68
2022-12-08T22:58:34.908Z,9.88
2022-12-08T23:01:01.740Z,9.07
2022-12-08T23:03:28.776Z,9.20
2022-12-08T23:05:55.613Z,8.40
2022-12-08T23:08:22.487Z,8.85
2022-12-08T23:10:51.443Z,9.13
2022-12-08T23:13:20.788Z,10.00
2022-12-08T23:15:47.773Z,9.45
2022-12-08T23:18:17.476Z,9.43
2022-12-08T23:20:44.380Z,8.90
2022-12-08T23:23:11.161Z,8.23
2022-12-08T23:25:40.430Z,9.23
2022-12-08T23:28:07.862Z,9.77
2022-12-08T23:30:36.511Z,10.18
2022-12-08T23:33:03.664Z,10.10
2022-12-08T23:35:30.423Z,9.32
2022-12-08T23:37:57.156Z,8.60
2022-12-08T23:40:24.188Z,9.85
2022-12-08T23:42:50.854Z,9.90
2022-12-08T23:45:17.750Z,9.75
2022-12-08T23:47:46.047Z,13.48
2022-12-08T23:50:13.149Z,12.32
2022-12-08T23:52:40.223Z,10.65
2022-12-08T23:55:08.350Z,10.63
2022-12-08T23:57:35.667Z,11.73
